Ginys del Meteocat

Dades de l'estació automàtica Sant Llorenç Savall

?
?
Resum diari 21:30 TU
Dades diàries de l'estació meteorològica
Temperatura mitjana 5.3 °C
Temperatura màxima 13.5 °C 13:55 TU
Temperatura mínima 0.5 °C 7:11 TU
Humitat relativa mitjana 86%
Precipitació acumulada 0.0 mm
Ratxa màxima del vent (10 m) 20.9 km/h - 52º 12:36 TU

El tram horari està expressat en Temps Universal (TU). Cal sumar una hora en horari d'hivern i dues en horari d'estiu per passar a l'hora oficial.

Sant Llorenç Savall

Metadades estació meteorol´gica
Municipi Sant Llorenç Savall
Comarca Vallès Occidental
Altitud 528 m
Data alta 25.03.1998
Estat actual Operativa
Dades de període
Període
TU
TM
°C
TX
°C
TN
°C
HRM
%
PPT
mm
VVM (10 m)
km/h
DVM (10 m)
graus
VVX (10 m)
km/h
00:00 - 00:30 3.2 3.6 2.9 100 0.0 1.8 41 6.1
00:30 - 01:00 2.9 3.2 2.6 100 0.0 1.4 0 5.8
01:00 - 01:30 2.8 3.1 2.6 100 0.0 1.8 344 5.8
01:30 - 02:00 2.5 2.8 2.4 100 0.0 2.9 1 7.2
02:00 - 02:30 2.1 2.5 1.7 100 0.0 1.8 345 6.5
02:30 - 03:00 1.9 2.2 1.7 100 0.0 1.1 57 5.8
03:00 - 03:30 1.9 2.1 1.7 100 0.0 1.4 45 4.3
03:30 - 04:00 1.4 1.7 1.2 100 0.0 1.4 46 4.0
04:00 - 04:30 1.2 1.2 1.0 100 0.0 2.5 48 4.3
04:30 - 05:00 1.1 1.2 1.0 100 0.0 2.2 51 4.3
05:00 - 05:30 1.2 1.3 1.1 100 0.0 1.8 50 4.3
05:30 - 06:00 1.4 1.6 1.1 100 0.0 1.1 53 3.2
06:00 - 06:30 1.1 1.3 0.9 100 0.0 2.9 48 5.4
06:30 - 07:00 0.8 1.0 0.6 100 0.0 2.9 48 6.8
07:00 - 07:30 0.6 0.8 0.5 100 0.0 1.4 45 3.6
07:30 - 08:00 0.8 1.0 0.7 100 0.0 1.1 46 3.6
08:00 - 08:30 1.9 2.9 1.1 100 0.0 0.4 62 3.2
08:30 - 09:00 4.5 6.4 3.0 100 0.0 5.8 59 17.6
09:00 - 09:30 7.5 8.0 6.5 84 0.0 11.5 58 18.0
09:30 - 10:00 8.8 9.9 7.8 73 0.0 5.4 42 13.3
10:00 - 10:30 10.5 10.9 9.9 59 0.0 2.5 34 7.9
10:30 - 11:00 10.8 11.1 10.7 56 0.0 5.0 21 12.2
11:00 - 11:30 11.1 11.3 10.9 58 0.0 7.2 27 17.3
11:30 - 12:00 11.6 11.9 11.4 57 0.0 6.1 42 15.1
12:00 - 12:30 11.8 12.1 11.5 56 0.0 7.9 50 17.3
12:30 - 13:00 12.2 12.6 11.9 52 0.0 4.3 67 20.9
13:00 - 13:30 12.3 12.5 12.1 49 0.0 5.4 55 14.4
13:30 - 14:00 13.1 13.5 12.6 48 0.0 2.9 222 9.4
14:00 - 14:30 12.6 13.2 12.1 49 0.0 4.7 90 15.8
14:30 - 15:00 12.5 13.2 12.3 50 0.0 4.3 62 18.0
15:00 - 15:30 12.3 12.8 11.5 54 0.0 2.2 235 6.5
15:30 - 16:00 9.5 11.2 8.5 73 0.0 1.4 225 5.8
16:00 - 16:30 7.7 8.5 6.7 87 0.0 0.4 52 3.2
16:30 - 17:00 6.1 6.7 5.6 93 0.0 3.2 44 7.6
17:00 - 17:30 4.9 5.6 4.3 96 0.0 2.5 47 5.8
17:30 - 18:00 4.0 4.3 3.5 100 0.0 1.8 49 5.8
18:00 - 18:30 3.2 3.5 3.0 100 0.0 1.4 47 4.7
18:30 - 19:00 2.7 3.0 2.3 100 0.0 1.1 40 4.3
19:00 - 19:30 2.5 3.0 2.2 100 0.0 2.2 48 7.2
19:30 - 20:00 2.4 2.7 2.1 100 0.0 1.4 49 4.3
20:00 - 20:30 2.3 2.5 2.1 100 0.0 2.5 45 5.4
20:30 - 21:00 2.1 2.4 1.8 100 0.0 1.1 49 4.0
21:00 - 21:30 1.7 1.9 1.5 100 0.0 1.4 44 4.3
21:30 - 22:00 1.8 2.2 1.6 100 0.0 1.8 50 6.1

Les dades en taronja només han passat un control de qualitat automàtic. Resta pendent la seva validació definitiva.